createdAt,value
2018-05-31T00:00:15.849Z,100053
2018-05-31T00:02:42.689Z,100040
2018-05-31T00:05:09.548Z,100043
2018-05-31T00:07:35.645Z,100039
2018-05-31T00:10:01.769Z,100035
2018-05-31T00:12:27.878Z,100039
2018-05-31T00:14:53.991Z,100035
2018-05-31T00:17:20.113Z,100037
2018-05-31T00:19:46.209Z,100033
2018-05-31T00:22:12.322Z,100033
2018-05-31T00:24:39.157Z,100034
2018-05-31T00:27:05.997Z,100026
2018-05-31T00:29:32.853Z,100032
2018-05-31T00:31:59.701Z,100015
2018-05-31T00:34:26.537Z,100017
2018-05-31T00:36:53.384Z,100023
2018-05-31T00:39:20.260Z,100021
2018-05-31T00:41:46.333Z,100019
2018-05-31T00:44:12.438Z,100016
2018-05-31T00:46:38.538Z,100025
2018-05-31T00:49:04.642Z,100019
2018-05-31T00:51:30.758Z,100020
2018-05-31T00:53:56.870Z,100015
2018-05-31T00:56:22.970Z,100008
2018-05-31T00:58:49.080Z,100017
2018-05-31T01:01:15.194Z,100015
2018-05-31T01:03:41.310Z,100024
2018-05-31T01:06:07.405Z,100016
2018-05-31T01:08:33.509Z,100016
2018-05-31T01:10:59.615Z,100021
2018-05-31T01:13:25.722Z,100016
2018-05-31T01:15:51.835Z,100008
2018-05-31T01:18:17.949Z,100010
2018-05-31T01:20:44.049Z,100005
2018-05-31T01:23:10.162Z,100013
2018-05-31T01:25:36.274Z,100002
2018-05-31T01:28:02.378Z,100005
2018-05-31T01:30:28.495Z,99999
2018-05-31T01:32:54.602Z,100006
2018-05-31T01:35:20.759Z,100005
2018-05-31T01:37:46.874Z,100008
2018-05-31T01:40:12.966Z,100006
2018-05-31T01:42:39.066Z,100008
2018-05-31T01:45:05.154Z,100003
2018-05-31T01:47:31.266Z,100008
2018-05-31T01:49:57.374Z,100005
2018-05-31T01:52:24.226Z,100009
2018-05-31T01:54:51.057Z,100009
2018-05-31T01:57:17.905Z,100009
2018-05-31T01:59:44.758Z,100010
2018-05-31T02:02:11.594Z,100010
2018-05-31T02:04:38.462Z,100020
2018-05-31T02:07:04.552Z,100017
2018-05-31T02:09:30.663Z,100021
2018-05-31T02:11:56.775Z,100010
2018-05-31T02:14:22.894Z,100015
2018-05-31T02:16:48.993Z,100019
2018-05-31T02:19:15.098Z,100025
2018-05-31T02:21:41.934Z,100014
2018-05-31T02:24:08.785Z,100019
2018-05-31T02:26:35.625Z,100025
2018-05-31T02:29:02.465Z,100014
2018-05-31T02:31:29.318Z,100019
2018-05-31T02:33:55.426Z,100017
2018-05-31T02:36:22.282Z,100016
2018-05-31T02:38:49.147Z,100020
2018-05-31T02:41:15.254Z,100012
2018-05-31T02:43:42.122Z,100016
2018-05-31T02:46:08.230Z,100020
2018-05-31T02:48:34.337Z,100019
2018-05-31T02:51:00.434Z,100010
2018-05-31T02:53:26.542Z,100028
2018-05-31T02:55:53.222Z,100019
2018-05-31T02:58:19.324Z,100017
2018-05-31T03:00:45.429Z,100010
2018-05-31T03:03:11.530Z,100019
2018-05-31T03:05:37.651Z,100008
2018-05-31T03:08:03.746Z,100013
2018-05-31T03:10:29.846Z,100018
2018-05-31T03:12:55.955Z,100013
2018-05-31T03:15:22.078Z,100019
2018-05-31T03:17:48.214Z,100015
2018-05-31T03:20:14.299Z,100017
2018-05-31T03:22:41.148Z,100023
2018-05-31T03:25:08.002Z,100009
2018-05-31T03:27:34.103Z,100015
2018-05-31T03:30:00.950Z,100015
2018-05-31T03:32:27.793Z,100010
2018-05-31T03:34:54.633Z,100013
2018-05-31T03:37:21.467Z,100009
2018-05-31T03:39:47.571Z,100017
2018-05-31T03:42:13.665Z,100014
2018-05-31T03:44:39.777Z,100018
2018-05-31T03:47:05.878Z,100011
2018-05-31T03:49:32.730Z,100012
2018-05-31T03:51:59.577Z,100013
2018-05-31T03:54:26.427Z,100016
2018-05-31T03:56:52.530Z,100015
2018-05-31T03:59:18.638Z,100010
2018-05-31T04:01:44.746Z,100012
2018-05-31T04:04:13.013Z,100012
2018-05-31T04:06:39.126Z,100013
2018-05-31T04:09:05.246Z,100011
2018-05-31T04:11:31.346Z,100022
2018-05-31T04:13:58.190Z,100021
2018-05-31T04:16:25.039Z,100026
2018-05-31T04:18:51.883Z,100018
2018-05-31T04:21:18.733Z,100021
2018-05-31T04:23:44.834Z,100018
2018-05-31T04:26:11.690Z,100012
2018-05-31T04:28:38.537Z,100019
2018-05-31T04:31:05.387Z,100017
2018-05-31T04:33:31.489Z,100019
2018-05-31T04:35:57.590Z,100019
2018-05-31T04:38:23.689Z,100019
2018-05-31T04:40:49.801Z,100027
2018-05-31T04:43:15.910Z,100016
2018-05-31T04:45:42.004Z,100012
2018-05-31T04:48:08.103Z,100021
2018-05-31T04:50:34.214Z,100024
2018-05-31T04:53:00.313Z,100029
2018-05-31T04:55:27.161Z,100024
2018-05-31T04:57:53.265Z,100025
2018-05-31T05:00:19.369Z,100025
2018-05-31T05:02:45.482Z,100019
2018-05-31T05:05:11.581Z,100030
2018-05-31T05:07:37.693Z,100030
2018-05-31T05:10:03.802Z,100039
2018-05-31T05:12:30.678Z,100035
2018-05-31T05:14:56.773Z,100031
2018-05-31T05:17:23.621Z,100030
2018-05-31T05:19:50.462Z,100039
2018-05-31T05:22:17.309Z,100034
2018-05-31T05:24:44.154Z,100043
2018-05-31T05:27:11.010Z,100042
2018-05-31T05:29:37.118Z,100042
2018-05-31T05:32:03.977Z,100046
2018-05-31T05:34:30.079Z,100044
2018-05-31T05:36:56.185Z,100049
2018-05-31T05:39:22.290Z,100058
2018-05-31T05:41:48.402Z,100057
2018-05-31T05:44:14.509Z,100058
2018-05-31T05:46:40.626Z,100055
2018-05-31T05:49:06.734Z,100054
2018-05-31T05:51:32.834Z,100051
2018-05-31T05:53:58.947Z,100050
2018-05-31T05:56:25.067Z,100061
2018-05-31T05:58:51.169Z,100051
2018-05-31T06:01:17.282Z,100056
2018-05-31T06:03:44.137Z,100051
2018-05-31T06:06:10.238Z,100056
2018-05-31T06:08:36.438Z,100048
2018-05-31T06:17:02.403Z,100046
2018-05-31T06:19:28.506Z,100039
2018-05-31T06:21:54.602Z,100029
2018-05-31T06:24:20.715Z,100010
2018-05-31T06:26:47.558Z,100004
2018-05-31T06:29:14.394Z,99997
2018-05-31T06:31:41.242Z,99988
2018-05-31T06:34:08.097Z,100000
2018-05-31T06:36:34.202Z,99999
2018-05-31T06:39:00.306Z,99967
2018-05-31T06:41:26.396Z,99960
2018-05-31T06:43:52.498Z,99969
2018-05-31T06:46:19.329Z,99979
2018-05-31T06:48:45.430Z,99974
2018-05-31T06:51:11.514Z,99986
2018-05-31T06:53:38.246Z,100002
2018-05-31T06:56:05.080Z,100004
2018-05-31T06:58:31.917Z,100000
2018-05-31T07:00:58.757Z,99991
2018-05-31T07:03:25.606Z,100001
2018-05-31T07:05:52.449Z,100008
2018-05-31T07:08:19.307Z,100001
2018-05-31T07:10:46.138Z,100062
2018-05-31T07:13:12.994Z,100011
2018-05-31T07:15:39.827Z,100015
2018-05-31T07:18:06.658Z,100012
2018-05-31T07:20:32.753Z,100014
2018-05-31T07:22:58.907Z,100026
2018-05-31T07:25:24.997Z,100029
2018-05-31T07:27:51.086Z,100025
2018-05-31T07:30:17.182Z,100015
2018-05-31T07:32:43.284Z,99949
2018-05-31T07:35:09.391Z,100053
2018-05-31T07:37:35.489Z,100060
2018-05-31T07:40:01.599Z,100064
2018-05-31T07:42:28.447Z,100067
2018-05-31T07:44:55.297Z,100079
2018-05-31T07:47:22.121Z,100075
2018-05-31T07:49:48.960Z,100067
2018-05-31T07:52:15.051Z,100075
2018-05-31T07:54:41.167Z,100069
2018-05-31T07:57:22.602Z,100076
2018-05-31T07:59:49.452Z,100086
2018-05-31T08:02:16.291Z,100068
2018-05-31T08:04:43.122Z,100080
2018-05-31T08:07:09.201Z,100081
2018-05-31T08:09:35.316Z,100082
2018-05-31T08:12:01.415Z,100081
2018-05-31T08:14:28.249Z,100090
2018-05-31T08:16:54.353Z,100094
2018-05-31T08:19:20.464Z,100095
2018-05-31T08:21:46.554Z,100088
2018-05-31T08:24:12.666Z,100093
2018-05-31T08:26:39.510Z,100091
2018-05-31T08:29:06.330Z,100106
2018-05-31T08:31:33.212Z,100096
2018-05-31T08:33:59.245Z,100101
2018-05-31T08:36:25.340Z,100101
2018-05-31T08:38:52.191Z,100100
2018-05-31T08:41:19.033Z,100099
2018-05-31T08:43:45.868Z,100105
2018-05-31T08:46:12.707Z,100102
2018-05-31T08:48:38.799Z,100103
2018-05-31T08:51:04.936Z,100094
2018-05-31T08:53:31.813Z,100089
2018-05-31T08:55:58.658Z,100084
2018-05-31T08:58:25.489Z,100081
2018-05-31T09:00:51.591Z,100090
2018-05-31T09:03:17.690Z,100092
2018-05-31T09:05:43.794Z,100083
2018-05-31T09:08:09.895Z,100082
2018-05-31T09:10:35.990Z,100080
2018-05-31T09:13:02.087Z,100085
2018-05-31T09:15:28.189Z,100089
2018-05-31T09:17:55.021Z,100078
2018-05-31T09:20:21.872Z,100082
2018-05-31T09:22:48.703Z,100079
2018-05-31T09:25:22.186Z,100076
2018-05-31T09:27:51.930Z,100068
2018-05-31T09:30:18.763Z,100068
2018-05-31T09:32:45.600Z,100070
2018-05-31T09:35:11.686Z,100065
2018-05-31T09:37:48.775Z,100063
2018-05-31T09:40:14.963Z,100065
2018-05-31T09:43:00.098Z,100061
2018-05-31T09:45:26.193Z,100057
2018-05-31T09:48:03.078Z,100055
2018-05-31T09:50:29.184Z,100052
2018-05-31T09:52:55.287Z,100057
2018-05-31T09:55:28.522Z,100057
2018-05-31T09:57:54.714Z,100061
2018-05-31T10:00:20.818Z,100057
2018-05-31T10:03:01.678Z,100053
2018-05-31T10:05:46.135Z,100062
2018-05-31T10:08:42.043Z,100056
2018-05-31T10:11:08.146Z,100062
2018-05-31T10:13:34.258Z,100051
2018-05-31T10:16:18.560Z,100060
2018-05-31T10:18:44.655Z,100060
2018-05-31T10:21:10.741Z,100058
2018-05-31T10:23:54.782Z,100054
2018-05-31T10:26:22.653Z,100057
2018-05-31T10:31:50.670Z,100067
2018-05-31T10:34:16.771Z,100057
2018-05-31T10:40:09.411Z,100056
2018-05-31T10:42:36.990Z,100057
2018-05-31T10:45:05.893Z,100052
2018-05-31T10:47:32.736Z,100057
2018-05-31T10:49:59.570Z,100055
2018-05-31T10:52:26.414Z,100055
2018-05-31T10:54:53.233Z,100055
2018-05-31T10:57:19.323Z,100039
2018-05-31T10:59:45.418Z,100047
2018-05-31T11:02:11.533Z,100037
2018-05-31T11:04:38.377Z,100043
2018-05-31T11:07:05.202Z,100038
2018-05-31T11:09:32.050Z,100035
2018-05-31T11:11:58.135Z,100038
2018-05-31T11:14:24.243Z,100039
2018-05-31T11:16:50.850Z,100041
2018-05-31T11:19:17.689Z,100031
2018-05-31T11:21:44.550Z,100041
2018-05-31T11:24:14.982Z,100031
2018-05-31T11:26:41.069Z,100038
2018-05-31T11:29:07.175Z,100033
2018-05-31T11:31:33.276Z,100021
2018-05-31T11:33:59.374Z,100031
2018-05-31T11:36:26.237Z,100031
2018-05-31T11:38:52.342Z,100028
2018-05-31T11:41:19.187Z,100030
2018-05-31T11:43:46.029Z,100030
2018-05-31T11:46:12.858Z,100017
2018-05-31T11:48:39.698Z,100011
2018-05-31T11:51:05.774Z,100011
2018-05-31T11:53:31.885Z,100009
2018-05-31T11:55:57.961Z,100010
2018-05-31T11:58:24.060Z,100001
2018-05-31T12:00:50.157Z,99998
2018-05-31T12:03:16.266Z,100004
2018-05-31T12:05:43.099Z,99992
2018-05-31T12:08:09.961Z,99997
2018-05-31T12:10:36.040Z,99990
2018-05-31T12:13:02.138Z,99997
2018-05-31T12:15:28.245Z,100000
2018-05-31T12:17:54.340Z,99997
2018-05-31T12:20:20.440Z,99992
2018-05-31T12:22:46.539Z,99979
2018-05-31T12:25:12.633Z,100001
2018-05-31T12:27:39.470Z,99992
2018-05-31T12:30:06.298Z,99978
2018-05-31T12:32:32.390Z,99979
2018-05-31T12:34:58.486Z,99979
2018-05-31T12:37:24.577Z,99976
2018-05-31T12:39:50.666Z,99980
2018-05-31T12:42:16.752Z,99983
2018-05-31T12:44:43.586Z,99984
2018-05-31T12:47:10.422Z,99976
2018-05-31T12:49:36.518Z,99973
2018-05-31T12:52:02.598Z,99981
2018-05-31T12:54:28.697Z,99985
2018-05-31T12:56:54.785Z,99972
2018-05-31T12:59:20.873Z,99977
2018-05-31T13:01:46.965Z,99969
2018-05-31T13:04:13.122Z,99971
2018-05-31T13:06:39.966Z,99967
2018-05-31T13:09:06.802Z,99968
2018-05-31T13:11:33.645Z,99964
2018-05-31T13:14:00.465Z,99964
2018-05-31T13:16:26.569Z,99961
2018-05-31T13:18:52.674Z,99963
2018-05-31T13:21:18.774Z,99955
2018-05-31T13:23:45.590Z,99962
2018-05-31T13:26:11.682Z,99960
2018-05-31T13:28:37.774Z,99954
2018-05-31T13:31:03.872Z,99947
2018-05-31T13:33:30.701Z,99952
2018-05-31T13:35:57.531Z,99956
2018-05-31T13:38:23.638Z,99947
2018-05-31T13:40:49.735Z,99942
2018-05-31T13:43:15.826Z,99941
2018-05-31T13:45:41.924Z,99946
2018-05-31T13:48:09.375Z,99942
2018-05-31T13:50:35.474Z,99943
2018-05-31T13:53:01.566Z,99948
2018-05-31T13:55:27.671Z,99938
2018-05-31T13:57:53.757Z,99933
2018-05-31T14:00:19.854Z,99932
2018-05-31T14:02:46.690Z,99931
2018-05-31T14:05:12.790Z,99938
2018-05-31T14:07:38.890Z,99936
2018-05-31T14:10:04.969Z,99935
2018-05-31T14:12:31.066Z,99934
2018-05-31T14:14:57.145Z,99931
2018-05-31T14:17:23.241Z,99926
2018-05-31T14:19:49.318Z,99932
2018-05-31T14:22:15.457Z,99923
2018-05-31T14:24:41.550Z,99930
2018-05-31T14:27:07.650Z,99934
2018-05-31T14:29:33.737Z,99930
2018-05-31T14:31:59.834Z,99930
2018-05-31T14:34:25.925Z,99922
2018-05-31T14:36:52.017Z,99917
2018-05-31T14:39:18.121Z,99923
2018-05-31T14:41:45.232Z,99923
2018-05-31T14:44:12.067Z,99916
2018-05-31T14:46:38.904Z,99910
2018-05-31T14:49:04.999Z,99909
2018-05-31T14:51:31.089Z,99909
2018-05-31T14:53:57.178Z,99909
2018-05-31T14:56:23.279Z,99900
2018-05-31T14:58:49.365Z,99910
2018-05-31T15:01:15.453Z,99912
2018-05-31T15:03:41.558Z,99912
2018-05-31T15:06:07.641Z,99898
2018-05-31T15:08:33.737Z,99903
2018-05-31T15:10:59.824Z,99897
2018-05-31T15:13:25.921Z,99891
2018-05-31T15:15:52.015Z,99898
2018-05-31T15:18:18.118Z,99889
2018-05-31T15:20:44.216Z,99901
2018-05-31T15:23:10.311Z,99904
2018-05-31T15:25:37.141Z,99902
2018-05-31T15:28:03.237Z,99907
2018-05-31T15:30:29.322Z,99907
2018-05-31T15:32:55.418Z,99903
2018-05-31T15:35:21.507Z,99895
2018-05-31T15:37:47.618Z,99898
2018-05-31T15:40:13.717Z,99895
2018-05-31T15:42:40.553Z,99895
2018-05-31T15:45:07.377Z,99895
2018-05-31T15:47:58.326Z,99895
2018-05-31T15:50:24.419Z,99891
2018-05-31T15:52:51.263Z,99894
2018-05-31T15:55:18.094Z,99897
2018-05-31T15:57:44.185Z,99908
2018-05-31T16:00:10.282Z,99907
2018-05-31T16:02:36.391Z,99902
2018-05-31T16:05:03.221Z,99905
2018-05-31T16:07:30.075Z,99892
2018-05-31T16:09:56.914Z,99894
2018-05-31T16:12:23.008Z,99897
2018-05-31T16:14:49.097Z,99895
2018-05-31T16:17:15.190Z,99902
2018-05-31T16:19:42.030Z,99900
2018-05-31T16:22:08.861Z,99903
2018-05-31T16:24:34.954Z,99893
2018-05-31T16:27:01.042Z,99905
2018-05-31T16:29:27.893Z,99900
2018-05-31T16:31:53.970Z,99895
2018-05-31T16:34:20.078Z,99892
2018-05-31T16:36:46.166Z,99887
2018-05-31T16:39:12.265Z,99887
2018-05-31T16:41:38.366Z,99878
2018-05-31T16:44:14.732Z,99872
2018-05-31T16:46:41.344Z,99869
2018-05-31T16:49:07.459Z,99872
2018-05-31T16:54:33.533Z,99864
2018-05-31T16:56:59.633Z,99860
2018-05-31T16:59:26.110Z,99866
2018-05-31T17:01:52.235Z,99855
2018-05-31T17:04:18.354Z,99859
2018-05-31T17:06:44.433Z,99858
2018-05-31T17:09:11.278Z,99866
2018-05-31T17:11:37.370Z,99856
2018-05-31T17:14:03.463Z,99862
2018-05-31T17:16:29.545Z,99857
2018-05-31T17:18:56.386Z,99864
2018-05-31T17:21:23.217Z,99858
2018-05-31T17:23:49.326Z,99858
2018-05-31T17:26:15.422Z,99859
2018-05-31T17:28:41.513Z,99868
2018-05-31T17:31:08.357Z,99872
2018-05-31T17:33:35.190Z,99871
2018-05-31T17:36:02.040Z,99884
2018-05-31T17:38:28.875Z,99885
2018-05-31T17:40:55.709Z,99887
2018-05-31T17:43:21.802Z,99892
2018-05-31T17:45:47.907Z,99890
2018-05-31T17:48:14.007Z,99887
2018-05-31T17:50:40.845Z,99897
2018-05-31T17:53:07.687Z,99887
2018-05-31T17:55:34.526Z,99888
2018-05-31T17:58:01.362Z,99889
2018-05-31T18:00:27.463Z,99889
2018-05-31T18:02:53.552Z,99892
2018-05-31T18:05:19.663Z,99885
2018-05-31T18:07:45.757Z,99880
2018-05-31T18:10:13.341Z,99879
2018-05-31T18:12:40.179Z,99887
2018-05-31T18:15:07.030Z,99893
2018-05-31T18:17:33.866Z,99891
2018-05-31T18:20:00.698Z,99895
2018-05-31T18:22:27.533Z,99893
2018-05-31T18:24:53.622Z,99895
2018-05-31T18:27:19.722Z,99896
2018-05-31T18:29:45.839Z,99902
2018-05-31T18:32:12.683Z,99907
2018-05-31T18:34:38.801Z,99908
2018-05-31T18:37:04.874Z,99914
2018-05-31T18:39:30.978Z,99921
2018-05-31T18:41:57.082Z,99930
2018-05-31T18:44:23.919Z,99933
2018-05-31T18:46:50.011Z,99934
2018-05-31T18:49:16.103Z,99931
2018-05-31T18:51:42.198Z,99940
2018-05-31T18:54:09.030Z,99942
2018-05-31T18:56:35.123Z,99943
2018-05-31T18:59:01.209Z,99944
2018-05-31T19:01:27.305Z,99948
2018-05-31T19:03:53.402Z,99941
2018-05-31T19:06:19.501Z,99946
2018-05-31T19:08:45.606Z,99939
2018-05-31T19:11:12.443Z,99946
2018-05-31T19:13:45.298Z,99938
2018-05-31T19:16:11.398Z,99938
2018-05-31T19:21:45.300Z,99952
2018-05-31T19:24:17.571Z,99949
2018-05-31T19:26:43.675Z,99954
2018-05-31T19:29:15.203Z,99957
2018-05-31T19:31:41.300Z,99955
2018-05-31T19:34:07.395Z,99948
2018-05-31T19:36:39.745Z,99951
2018-05-31T19:39:39.975Z,99951
2018-05-31T19:42:34.532Z,99947
2018-05-31T19:45:04.301Z,99958
2018-05-31T19:47:35.026Z,99963
2018-05-31T19:50:01.863Z,99962
2018-05-31T19:52:38.502Z,99960
2018-05-31T19:55:06.618Z,99961
2018-05-31T19:57:32.718Z,99960
2018-05-31T20:03:25.471Z,99966
2018-05-31T20:05:51.577Z,99964
2018-05-31T20:08:31.262Z,99961
2018-05-31T20:10:57.346Z,99962
2018-05-31T20:13:50.173Z,99963
2018-05-31T20:16:16.273Z,99962
2018-05-31T20:18:43.115Z,99964
2018-05-31T20:21:09.958Z,99963
2018-05-31T20:24:04.321Z,99962
2018-05-31T20:26:30.427Z,99963
2018-05-31T20:28:58.581Z,99965
2018-05-31T20:34:43.018Z,99959
2018-05-31T20:37:09.118Z,99954
2018-05-31T20:39:43.226Z,99968
2018-05-31T20:42:09.403Z,99968
2018-05-31T20:44:46.442Z,99967
2018-05-31T20:47:17.846Z,99957
2018-05-31T20:50:11.245Z,99964
2018-05-31T20:52:37.359Z,99966
2018-05-31T20:55:03.554Z,99971
2018-05-31T20:57:30.378Z,99971
2018-05-31T20:59:57.240Z,99972
2018-05-31T21:02:24.068Z,99974
2018-05-31T21:05:05.034Z,99968
2018-05-31T21:07:31.124Z,99977
2018-05-31T21:09:57.225Z,99982
2018-05-31T21:12:23.324Z,99983
2018-05-31T21:14:50.164Z,99976
2018-05-31T21:17:16.262Z,99978
2018-05-31T21:25:44.225Z,99958
2018-05-31T21:28:10.330Z,99965
2018-05-31T21:30:37.170Z,99973
2018-05-31T21:33:17.311Z,99971
2018-05-31T21:35:43.605Z,99965
2018-05-31T21:38:10.298Z,99975
2018-05-31T21:40:37.137Z,99968
2018-05-31T21:43:03.226Z,99970
2018-05-31T21:45:29.328Z,99977
2018-05-31T21:47:55.417Z,99979
2018-05-31T21:50:22.254Z,99970
2018-05-31T21:52:48.343Z,99965
2018-05-31T21:55:14.437Z,99967
2018-05-31T21:57:40.530Z,99964
2018-05-31T22:00:06.638Z,99972
2018-05-31T22:02:33.486Z,99968
2018-05-31T22:04:59.594Z,99958
2018-05-31T22:07:25.706Z,99961
2018-05-31T22:09:51.809Z,99964
2018-05-31T22:12:17.897Z,99967
2018-05-31T22:14:44.002Z,99965
2018-05-31T22:17:10.100Z,99964
2018-05-31T22:19:36.199Z,99952
2018-05-31T22:22:03.046Z,99952
2018-05-31T22:24:29.885Z,99948
2018-05-31T22:26:56.720Z,99951
2018-05-31T22:29:23.549Z,99946
2018-05-31T22:31:49.651Z,99947
2018-05-31T22:34:15.833Z,99938
2018-05-31T22:36:41.965Z,99950
2018-05-31T22:39:08.790Z,99946
2018-05-31T22:41:35.643Z,99948
2018-05-31T22:44:01.730Z,99943
2018-05-31T22:46:27.834Z,99943
2018-05-31T22:48:53.925Z,99943
2018-05-31T22:51:20.025Z,99952
2018-05-31T22:53:46.122Z,99949
2018-05-31T22:56:12.231Z,99947
2018-05-31T22:58:38.321Z,99949
2018-05-31T23:01:05.154Z,99942
2018-05-31T23:03:31.994Z,99940
2018-05-31T23:05:58.850Z,99944
2018-05-31T23:11:21.592Z,99952
2018-05-31T23:13:47.690Z,99949
2018-05-31T23:16:13.786Z,99954
2018-05-31T23:18:39.878Z,99945
2018-05-31T23:21:06.012Z,99943
2018-05-31T23:23:32.859Z,99939
2018-05-31T23:25:59.704Z,99941
2018-05-31T23:28:26.533Z,99937
2018-05-31T23:30:52.621Z,99940
2018-05-31T23:33:18.723Z,99940
2018-05-31T23:35:44.819Z,99937
2018-05-31T23:38:11.662Z,99930
2018-05-31T23:40:38.497Z,99926
2018-05-31T23:43:04.606Z,99923
2018-05-31T23:45:30.702Z,99925
2018-05-31T23:47:56.802Z,99927
2018-05-31T23:50:22.911Z,99930
2018-05-31T23:52:49.771Z,99928
2018-05-31T23:55:15.868Z,99920
2018-05-31T23:57:41.970Z,99923
